Time;durP1;ratioP1;P1;durP2;ratioP2;P2;SDS_P1;SDS_P2;PMS_P1;PMS_P2;Temp;Humidity;BMP_temperature;BMP_pressure;BME280_temperature;BME280_humidity;BME280_pressure;Samples;Min_cycle;Max_cycle;Signal;HPM_P1;HPM_P2
2022/04/20 00:00:31;;;;;;;6.07;4.05;;;9.30;99.90;;;;;;5018204;28;20057;-62
2022/04/20 00:02:57;;;;;;;9.02;4.63;;;9.30;99.90;;;;;;5017710;28;20049;-62
2022/04/20 00:05:22;;;;;;;7.30;4.80;;;9.30;99.90;;;;;;5018193;28;20041;-62
2022/04/20 00:07:48;;;;;;;6.63;4.30;;;9.30;99.90;;;;;;5035190;28;20072;-62
2022/04/20 00:10:14;;;;;;;6.88;4.53;;;9.30;99.90;;;;;;5035376;28;20469;-63
2022/04/20 00:12:39;;;;;;;6.30;4.45;;;9.20;99.90;;;;;;5017579;28;20038;-61
2022/04/20 00:15:06;;;;;;;8.43;4.70;;;9.20;99.90;;;;;;5035573;28;20045;-63
2022/04/20 00:17:32;;;;;;;9.23;5.38;;;9.10;99.90;;;;;;5017418;28;20136;-64
2022/04/20 00:19:57;;;;;;;7.00;4.47;;;9.10;99.90;;;;;;5034999;28;20124;-62
2022/04/20 00:22:23;;;;;;;8.70;5.22;;;9.20;99.90;;;;;;5017449;28;20072;-62
2022/04/20 00:24:48;;;;;;;6.72;4.70;;;9.20;99.90;;;;;;5035476;28;20041;-62
2022/04/20 00:27:14;;;;;;;8.25;4.60;;;9.20;99.90;;;;;;5017320;28;20049;-62
2022/04/20 00:29:40;;;;;;;8.10;4.88;;;9.10;99.90;;;;;;5017792;28;20045;-62
2022/04/20 00:32:06;;;;;;;6.88;4.18;;;9.10;99.90;;;;;;5017125;28;20497;-62
2022/04/20 00:34:32;;;;;;;6.72;4.80;;;9.00;99.90;;;;;;5017747;28;20064;-63
2022/04/20 00:36:58;;;;;;;9.77;5.03;;;9.00;99.90;;;;;;5017028;28;20037;-64
2022/04/20 00:39:24;;;;;;;7.30;4.75;;;9.00;99.90;;;;;;5017336;28;20057;-62
2022/04/20 00:41:49;;;;;;;7.22;4.43;;;8.90;99.90;;;;;;5034760;28;20048;-62
2022/04/20 00:44:15;;;;;;;7.13;4.53;;;8.80;99.90;;;;;;5034528;28;20049;-62
2022/04/20 00:46:42;;;;;;;8.05;4.35;;;8.80;99.90;;;;;;5034512;28;20041;-62
2022/04/20 00:49:09;;;;;;;6.47;4.32;;;8.70;99.90;;;;;;5035088;28;20056;-63
2022/04/20 00:51:34;;;;;;;8.45;5.03;;;8.80;99.90;;;;;;5034542;28;20048;-62
2022/04/20 00:54:01;;;;;;;7.28;4.22;;;8.70;99.90;;;;;;5017252;28;20041;-62
2022/04/20 00:56:27;;;;;;;7.05;4.10;;;8.80;99.90;;;;;;5034365;28;20096;-62
2022/04/20 00:58:55;;;;;;;6.60;4.13;;;8.80;99.90;;;;;;5000708;28;20088;-63
2022/04/20 01:01:20;;;;;;;7.78;4.22;;;8.70;99.90;;;;;;5000433;28;20362;-62
2022/04/20 01:03:46;;;;;;;6.28;3.90;;;8.70;99.90;;;;;;5034204;28;20133;-63
2022/04/20 01:06:11;;;;;;;9.02;4.75;;;8.60;99.90;;;;;;5016475;28;20128;-63
2022/04/20 01:08:37;;;;;;;8.25;4.18;;;8.80;99.90;;;;;;5033951;28;20045;-63
2022/04/20 01:11:03;;;;;;;7.25;4.32;;;8.80;99.90;;;;;;5034310;28;20120;-63
2022/04/20 01:13:29;;;;;;;7.53;4.05;;;8.70;99.90;;;;;;5016441;28;20049;-62
2022/04/20 01:15:54;;;;;;;6.53;4.28;;;8.70;99.90;;;;;;5033864;28;20133;-64
2022/04/20 01:18:20;;;;;;;8.30;4.55;;;8.60;99.90;;;;;;5016510;28;20053;-63
2022/04/20 01:20:46;;;;;;;6.47;4.15;;;8.60;99.90;;;;;;5016619;28;20485;-63
2022/04/20 01:23:12;;;;;;;9.05;4.63;;;8.60;99.90;;;;;;5000580;28;20037;-63
2022/04/20 01:25:38;;;;;;;7.22;4.82;;;8.50;99.90;;;;;;4996741;28;20064;-63
2022/04/20 01:28:05;;;;;;;7.22;4.53;;;8.50;99.90;;;;;;5014607;28;20340;-62
2022/04/20 01:30:31;;;;;;;7.63;4.47;;;8.50;99.90;;;;;;5014196;28;20117;-62
2022/04/20 01:32:57;;;;;;;6.60;4.47;;;8.50;99.90;;;;;;5027566;28;20045;-63
2022/04/20 01:35:23;;;;;;;8.90;4.43;;;8.50;99.90;;;;;;4999494;28;20060;-62
2022/04/20 01:37:52;;;;;;;8.25;4.40;;;8.50;99.90;;;;;;5016278;28;20037;-63
2022/04/20 01:40:18;;;;;;;6.57;4.30;;;8.40;99.90;;;;;;5033747;28;20525;-62
2022/04/20 01:42:44;;;;;;;8.80;4.60;;;8.40;99.90;;;;;;5015960;28;20049;-63
2022/04/20 01:45:10;;;;;;;7.28;4.78;;;8.30;99.90;;;;;;5015937;28;20045;-63
2022/04/20 01:47:37;;;;;;;9.05;5.30;;;8.20;99.90;;;;;;5033352;28;20492;-63
2022/04/20 01:50:03;;;;;;;10.07;4.70;;;8.20;99.90;;;;;;5033773;28;20350;-62
2022/04/20 01:52:29;;;;;;;6.85;4.53;;;8.10;99.90;;;;;;5015902;28;20081;-62
2022/04/20 01:54:55;;;;;;;6.70;4.40;;;8.10;99.90;;;;;;5015927;28;20138;-63
2022/04/20 01:57:20;;;;;;;6.55;4.43;;;8.10;99.90;;;;;;5033245;28;20154;-61
2022/04/20 01:59:46;;;;;;;9.10;4.88;;;8.10;99.90;;;;;;5016025;28;20042;-62
2022/04/20 02:04:56;;;;;;;8.38;4.80;;;8.10;99.90;;;;;;5033556;28;20045;-62
2022/04/20 02:07:21;;;;;;;7.00;4.53;;;8.20;99.90;;;;;;5033189;28;20430;-62
2022/04/20 02:09:47;;;;;;;7.45;4.70;;;8.10;99.90;;;;;;5015944;28;20046;-61
2022/04/20 02:12:13;;;;;;;7.45;4.75;;;8.10;99.90;;;;;;5015531;28;20049;-62
2022/04/20 02:14:38;;;;;;;7.45;4.53;;;8.10;99.90;;;;;;5015687;28;20045;-62
2022/04/20 02:17:05;;;;;;;8.43;5.15;;;8.00;99.90;;;;;;5015338;28;20091;-62
2022/04/20 02:19:30;;;;;;;9.23;4.68;;;7.90;99.90;;;;;;5033122;28;20378;-62
2022/04/20 02:21:56;;;;;;;7.35;4.88;;;7.90;99.90;;;;;;5013101;28;20057;-64
2022/04/20 02:24:21;;;;;;;7.88;5.18;;;7.90;99.90;;;;;;5000493;28;20038;-62
2022/04/20 02:26:47;;;;;;;6.90;4.75;;;7.90;99.90;;;;;;5017318;28;20034;-62
2022/04/20 02:29:13;;;;;;;8.00;4.80;;;7.70;99.90;;;;;;5000146;28;20119;-63
2022/04/20 02:31:39;;;;;;;7.78;5.07;;;7.70;99.90;;;;;;5002551;28;20045;-62
2022/04/20 02:34:04;;;;;;;10.50;6.05;;;7.70;99.90;;;;;;5019798;28;20538;-62
2022/04/20 02:36:31;;;;;;;8.13;5.90;;;7.80;99.90;;;;;;5019255;28;20045;-62
2022/04/20 02:38:57;;;;;;;9.38;5.95;;;7.70;99.90;;;;;;5019983;28;20049;-61
2022/04/20 02:41:23;;;;;;;8.45;5.75;;;7.70;99.90;;;;;;5019801;28;20106;-62
2022/04/20 02:43:49;;;;;;;9.88;6.18;;;7.70;99.90;;;;;;5017356;28;20042;-61
2022/04/20 02:46:15;;;;;;;8.70;6.30;;;7.60;99.90;;;;;;5033649;28;20042;-61
2022/04/20 02:48:41;;;;;;;9.15;5.78;;;7.60;99.90;;;;;;5037198;28;20323;-63
2022/04/20 02:51:08;;;;;;;11.10;6.28;;;7.70;99.90;;;;;;5019419;28;20064;-62
2022/04/20 02:53:34;;;;;;;8.88;5.97;;;7.70;99.90;;;;;;5019182;28;20490;-62
2022/04/20 02:56:00;;;;;;;7.32;5.07;;;7.60;99.90;;;;;;5002606;28;20124;-62
2022/04/20 02:58:25;;;;;;;9.23;5.65;;;7.60;99.90;;;;;;5036893;28;20045;-62
2022/04/20 03:00:51;;;;;;;9.10;5.65;;;7.60;99.90;;;;;;5036883;28;20059;-62
2022/04/20 03:03:17;;;;;;;10.77;5.63;;;7.50;99.90;;;;;;5036508;28;20382;-63
2022/04/20 03:05:42;;;;;;;9.10;5.40;;;7.50;99.90;;;;;;5036400;28;20112;-63
2022/04/20 03:08:08;;;;;;;8.90;5.47;;;7.40;99.90;;;;;;5002643;28;20463;-62
2022/04/20 03:10:34;;;;;;;8.73;5.18;;;7.30;99.90;;;;;;5019209;28;20111;-63
2022/04/20 03:12:59;;;;;;;9.32;5.78;;;7.40;99.90;;;;;;4989271;28;20042;-62
2022/04/20 03:15:25;;;;;;;9.27;5.78;;;7.40;99.90;;;;;;5016435;28;20030;-63
2022/04/20 03:17:50;;;;;;;8.95;5.15;;;7.40;99.90;;;;;;4999324;28;20370;-62
2022/04/20 03:20:16;;;;;;;8.05;5.78;;;7.30;99.90;;;;;;5016657;28;20458;-64
2022/04/20 03:22:42;;;;;;;9.10;5.90;;;7.30;99.90;;;;;;5027296;28;20042;-62
2022/04/20 03:25:08;;;;;;;9.20;5.88;;;7.30;99.90;;;;;;5036042;28;20479;-63
2022/04/20 03:27:33;;;;;;;10.18;6.50;;;7.20;99.90;;;;;;5018586;28;20111;-63
2022/04/20 03:29:59;;;;;;;8.50;6.13;;;7.20;99.90;;;;;;5018532;28;20450;-62
2022/04/20 03:32:24;;;;;;;8.25;6.15;;;7.20;99.90;;;;;;5026984;28;20041;-62
2022/04/20 03:34:50;;;;;;;9.23;6.43;;;7.20;99.90;;;;;;4998877;28;20088;-63
2022/04/20 03:37:16;;;;;;;10.10;6.38;;;7.30;99.90;;;;;;5015824;28;20077;-64
2022/04/20 03:39:41;;;;;;;10.75;6.10;;;7.30;99.90;;;;;;5016351;28;20048;-62
2022/04/20 03:42:08;;;;;;;8.30;5.63;;;7.30;99.90;;;;;;5004168;28;20044;-61
2022/04/20 03:44:34;;;;;;;9.85;6.00;;;7.10;99.90;;;;;;5018129;28;20124;-62
2022/04/20 03:46:59;;;;;;;8.90;5.80;;;7.20;99.90;;;;;;5017626;28;20133;-61
2022/04/20 03:49:25;;;;;;;10.70;6.53;;;7.20;99.90;;;;;;5002033;28;20072;-61
2022/04/20 03:51:51;;;;;;;8.55;5.57;;;7.20;99.90;;;;;;5032094;28;20554;-62
2022/04/20 03:54:17;;;;;;;10.18;6.53;;;7.10;99.90;;;;;;5015569;28;20375;-62
2022/04/20 03:59:27;;;;;;;10.50;6.57;;;7.10;99.90;;;;;;5015896;28;20061;-62
2022/04/20 04:01:53;;;;;;;8.60;6.18;;;7.10;99.90;;;;;;5001374;28;20099;-63
2022/04/20 04:04:19;;;;;;;11.77;6.00;;;7.10;99.90;;;;;;5018123;28;20064;-62
2022/04/20 04:06:45;;;;;;;9.57;6.07;;;7.00;99.90;;;;;;5034771;28;20099;-62
2022/04/20 04:09:11;;;;;;;8.77;6.25;;;7.00;99.90;;;;;;5017792;28;20476;-62
2022/04/20 04:11:36;;;;;;;9.35;6.03;;;7.10;99.90;;;;;;5017802;28;20049;-62
2022/04/20 04:14:02;;;;;;;8.02;5.65;;;7.00;99.90;;;;;;5035593;28;20358;-62
2022/04/20 04:16:28;;;;;;;10.73;5.95;;;6.80;99.90;;;;;;5034822;28;20068;-62
2022/04/20 04:18:53;;;;;;;7.72;5.43;;;6.90;99.90;;;;;;5017657;28;20045;-62
2022/04/20 04:21:20;;;;;;;9.02;5.70;;;7.00;99.90;;;;;;5017639;28;20045;-62
2022/04/20 04:23:46;;;;;;;10.68;6.28;;;7.00;99.90;;;;;;5017086;28;20423;-63
2022/04/20 04:26:12;;;;;;;8.80;5.70;;;6.90;99.90;;;;;;5000838;28;20061;-61
2022/04/20 04:28:37;;;;;;;7.88;5.30;;;6.90;99.90;;;;;;5017505;28;20080;-62
2022/04/20 04:31:03;;;;;;;9.18;5.95;;;6.80;99.90;;;;;;5017598;28;20391;-62
2022/04/20 04:33:29;;;;;;;9.23;5.78;;;6.70;99.90;;;;;;5017138;28;20049;-62
2022/04/20 04:35:54;;;;;;;8.70;5.70;;;6.80;99.90;;;;;;5017067;28;20041;-62
2022/04/20 04:38:20;;;;;;;7.85;5.75;;;6.70;99.90;;;;;;5017081;28;20045;-63
2022/04/20 04:40:46;;;;;;;8.98;6.60;;;6.90;99.90;;;;;;5017265;28;20120;-63
2022/04/20 04:43:12;;;;;;;8.30;6.70;;;6.80;99.90;;;;;;4999995;28;20110;-63
2022/04/20 04:48:39;;;;;;;8.57;6.75;;;6.90;99.90;;;;;;5034399;28;20051;-62
2022/04/20 04:51:06;;;;;;;11.95;7.35;;;6.90;99.90;;;;;;5020373;28;20315;-65
2022/04/20 04:53:31;;;;;;;9.30;6.85;;;6.90;99.90;;;;;;5034110;28;20052;-63
2022/04/20 04:55:57;;;;;;;10.00;6.82;;;6.80;99.90;;;;;;5032056;28;20048;-63
2022/04/20 04:58:23;;;;;;;10.35;6.68;;;6.90;99.90;;;;;;5033574;28;20124;-62
2022/04/20 05:00:49;;;;;;;9.48;6.18;;;7.00;99.90;;;;;;5019248;28;20033;-63
2022/04/20 05:03:16;;;;;;;11.00;6.43;;;6.90;99.90;;;;;;5033677;28;20033;-64
2022/04/20 05:05:45;;;;;;;10.95;6.53;;;6.90;99.90;;;;;;5031864;28;20056;-63
2022/04/20 05:08:11;;;;;;;10.80;7.53;;;6.90;99.90;;;;;;5033407;28;20049;-62
2022/04/20 05:10:39;;;;;;;12.07;7.68;;;6.90;99.90;;;;;;5031992;28;20102;-63
2022/04/20 05:13:06;;;;;;;10.13;6.97;;;6.90;99.90;;;;;;5022556;28;20060;-62
2022/04/20 05:15:32;;;;;;;11.02;7.30;;;6.90;99.90;;;;;;5033436;28;20122;-66
2022/04/20 05:17:59;;;;;;;9.63;6.78;;;6.90;99.90;;;;;;5033599;28;20041;-63
2022/04/20 05:20:24;;;;;;;9.98;6.30;;;6.90;99.90;;;;;;5031667;28;20493;-62
2022/04/20 05:22:50;;;;;;;9.25;5.97;;;6.90;99.90;;;;;;5033845;28;20116;-63
2022/04/20 05:25:16;;;;;;;9.00;5.55;;;7.20;99.90;;;;;;5015983;28;20045;-63
2022/04/20 05:27:42;;;;;;;8.48;5.55;;;7.60;99.90;;;;;;5034302;28;20037;-63
2022/04/20 05:30:09;;;;;;;9.15;5.95;;;7.90;99.90;;;;;;5033125;28;20122;-63
2022/04/20 05:32:35;;;;;;;8.65;5.78;;;8.10;99.90;;;;;;5026166;28;20072;-63
2022/04/20 05:35:01;;;;;;;8.75;5.80;;;8.20;99.90;;;;;;5032672;28;20382;-63
2022/04/20 05:42:56;;;;;;;11.68;4.95;;;9.30;99.90;;;;;;5032498;28;20037;-64
2022/04/20 05:45:22;;;;;;;9.00;5.13;;;10.10;99.90;;;;;;5030983;28;20073;-64
2022/04/20 05:47:48;;;;;;;9.65;5.63;;;10.50;99.90;;;;;;5032844;28;20057;-63
2022/04/20 05:50:14;;;;;;;14.35;6.15;;;10.70;99.90;;;;;;5032507;28;20037;-67
2022/04/20 05:52:40;;;;;;;7.93;4.90;;;11.10;98.90;;;;;;5025817;28;20041;-67
2022/04/20 05:55:06;;;;;;;9.38;6.25;;;11.40;98.10;;;;;;5033188;28;20060;-68
2022/04/20 05:57:36;;;;;;;8.93;5.40;;;11.50;98.00;;;;;;5015912;28;20132;-68
2022/04/20 06:00:03;;;;;;;8.85;5.35;;;11.80;97.60;;;;;;5015343;28;20052;-65
2022/04/20 06:02:33;;;;;;;9.65;5.55;;;12.00;96.80;;;;;;5022843;28;20361;-67
2022/04/20 06:05:00;;;;;;;7.50;4.93;;;11.90;96.80;;;;;;5016540;28;20184;-63
2022/04/20 06:07:26;;;;;;;9.93;5.07;;;12.10;96.70;;;;;;5032728;28;20048;-63
2022/04/20 06:09:51;;;;;;;7.72;5.60;;;12.20;96.20;;;;;;5028036;28;20042;-65
2022/04/20 06:12:17;;;;;;;9.57;5.50;;;12.50;96.00;;;;;;5032701;28;20068;-64
2022/04/20 06:14:42;;;;;;;9.18;5.07;;;12.20;96.60;;;;;;5031729;28;20427;-64
2022/04/20 06:17:08;;;;;;;9.07;4.60;;;12.80;95.30;;;;;;5031751;28;20125;-64
2022/04/20 06:19:34;;;;;;;8.00;4.68;;;12.90;95.20;;;;;;5031019;28;20029;-64
2022/04/20 06:22:00;;;;;;;8.48;5.00;;;13.20;94.30;;;;;;5031394;28;20461;-64
2022/04/20 06:24:25;;;;;;;7.93;5.25;;;13.20;94.30;;;;;;5030772;28;20037;-63
2022/04/20 06:26:52;;;;;;;7.70;4.95;;;13.10;94.30;;;;;;5031818;28;20045;-66
2022/04/20 06:29:18;;;;;;;7.63;4.60;;;13.00;94.70;;;;;;5031742;28;20506;-68
2022/04/20 06:31:45;;;;;;;6.93;4.60;;;13.70;93.60;;;;;;5013863;28;20037;-63
2022/04/20 06:34:11;;;;;;;6.93;4.85;;;13.80;93.10;;;;;;5013618;28;20132;-63
2022/04/20 06:36:37;;;;;;;7.70;4.60;;;13.80;92.90;;;;;;5031142;28;20145;-63
2022/04/20 06:39:03;;;;;;;8.18;4.47;;;13.70;93.40;;;;;;5032212;28;20038;-63
2022/04/20 06:41:29;;;;;;;8.02;4.53;;;13.90;93.00;;;;;;5008432;28;20041;-62
2022/04/20 06:43:56;;;;;;;8.90;4.43;;;14.40;92.20;;;;;;5015118;28;20087;-63
2022/04/20 06:46:21;;;;;;;7.53;4.35;;;14.40;91.40;;;;;;5032435;28;20045;-63
2022/04/20 06:48:47;;;;;;;7.97;4.78;;;14.00;92.60;;;;;;5015139;28;20060;-63
2022/04/20 06:51:12;;;;;;;7.75;4.63;;;14.30;92.10;;;;;;5015462;28;20047;-63
2022/04/20 06:59:07;;;;;;;6.60;4.20;;;14.60;91.50;;;;;;5032663;28;20045;-63
2022/04/20 07:01:33;;;;;;;8.57;3.80;;;14.90;90.30;;;;;;5031295;28;20359;-65
2022/04/20 07:03:59;;;;;;;8.13;4.18;;;15.00;89.40;;;;;;4995784;28;20053;-63
2022/04/20 07:06:25;;;;;;;7.78;4.00;;;14.60;90.60;;;;;;5013047;28;20176;-64
2022/04/20 07:08:51;;;;;;;8.55;4.60;;;14.60;90.70;;;;;;5030118;28;20145;-62
2022/04/20 07:11:16;;;;;;;7.10;4.20;;;15.00;90.10;;;;;;5035755;28;20124;-63
2022/04/20 07:13:42;;;;;;;5.82;3.58;;;14.90;90.60;;;;;;4985494;28;20041;-61
2022/04/20 07:16:08;;;;;;;7.18;3.92;;;15.40;88.60;;;;;;4998919;28;20075;-65
2022/04/20 07:18:33;;;;;;;7.07;4.13;;;15.20;89.50;;;;;;4998990;28;20056;-63
2022/04/20 07:20:59;;;;;;;6.68;3.80;;;14.50;90.60;;;;;;5015843;28;20117;-64
2022/04/20 07:23:25;;;;;;;7.57;3.35;;;14.20;90.90;;;;;;5013806;28;20057;-64
2022/04/20 07:25:50;;;;;;;7.13;4.07;;;14.30;90.10;;;;;;5018324;28;20124;-63
2022/04/20 07:28:16;;;;;;;7.40;3.60;;;13.80;90.80;;;;;;5018545;28;20053;-64
2022/04/20 07:30:42;;;;;;;6.18;4.05;;;13.40;91.40;;;;;;5018014;28;20423;-64
2022/04/20 07:33:08;;;;;;;6.93;3.58;;;13.30;91.90;;;;;;5017739;28;20124;-64
2022/04/20 07:35:33;;;;;;;5.85;3.67;;;13.20;91.70;;;;;;5001942;28;20128;-66
2022/04/20 07:37:59;;;;;;;8.30;3.63;;;13.10;92.30;;;;;;5017850;28;20053;-62
2022/04/20 07:40:25;;;;;;;6.47;3.13;;;13.00;92.30;;;;;;5035273;28;20052;-64
2022/04/20 07:42:54;;;;;;;6.80;3.63;;;13.10;92.80;;;;;;5025827;28;20033;-64
2022/04/20 07:45:21;;;;;;;6.05;3.38;;;13.20;92.90;;;;;;5002973;28;20045;-63
2022/04/20 07:47:49;;;;;;;6.45;3.67;;;13.40;93.10;;;;;;5017681;28;20059;-62
2022/04/20 07:50:18;;;;;;;7.75;3.42;;;13.50;92.20;;;;;;5035346;28;20045;-65
2022/04/20 07:52:56;;;;;;;5.07;3.00;;;13.40;92.10;;;;;;5017848;28;20045;-63
2022/04/20 07:55:24;;;;;;;5.05;3.13;;;13.40;92.00;;;;;;5035635;28;20120;-63
2022/04/20 07:57:52;;;;;;;4.65;2.83;;;13.40;91.60;;;;;;5034806;28;20037;-62
2022/04/20 08:00:18;;;;;;;5.22;3.10;;;13.20;91.40;;;;;;5034371;28;20091;-64
2022/04/20 08:02:44;;;;;;;6.38;3.10;;;13.10;91.90;;;;;;5028208;28;20037;-63
2022/04/20 08:05:12;;;;;;;4.22;2.92;;;13.20;92.30;;;;;;5017630;28;20092;-64
2022/04/20 08:07:39;;;;;;;5.32;3.42;;;13.40;92.20;;;;;;5001434;28;20111;-63
2022/04/20 08:10:08;;;;;;;5.68;3.35;;;13.50;92.00;;;;;;5017435;28;20037;-63
2022/04/20 08:12:46;;;;;;;4.25;2.83;;;13.70;91.60;;;;;;5017595;28;20456;-65
2022/04/20 08:15:12;;;;;;;8.02;3.08;;;13.90;90.70;;;;;;5018164;28;20037;-63
2022/04/20 08:17:38;;;;;;;4.53;2.42;;;14.10;90.10;;;;;;5034886;28;20461;-63
2022/04/20 08:20:05;;;;;;;4.97;2.70;;;14.10;87.90;;;;;;5034841;28;20394;-63
2022/04/20 08:22:31;;;;;;;5.57;2.70;;;14.00;86.00;;;;;;5010667;28;20038;-63
2022/04/20 08:24:56;;;;;;;5.88;3.15;;;14.00;85.70;;;;;;4997648;28;20107;-61
2022/04/20 08:27:23;;;;;;;5.60;2.63;;;14.00;86.80;;;;;;5015038;28;20121;-62
2022/04/20 08:29:51;;;;;;;3.70;2.33;;;14.00;86.20;;;;;;5014914;28;20068;-66
2022/04/20 08:32:19;;;;;;;5.05;2.20;;;14.00;84.60;;;;;;5001616;28;20042;-65
2022/04/20 08:34:45;;;;;;;4.22;2.33;;;14.10;81.60;;;;;;5034759;28;20037;-64
2022/04/20 08:37:11;;;;;;;5.00;2.15;;;14.10;82.70;;;;;;5033306;28;20342;-62
2022/04/20 08:39:41;;;;;;;4.15;2.25;;;14.10;81.50;;;;;;5033571;28;20029;-62
2022/04/20 08:42:07;;;;;;;3.53;2.22;;;14.20;79.90;;;;;;5017031;28;20049;-63
2022/04/20 08:44:37;;;;;;;3.17;1.80;;;14.10;79.60;;;;;;5034486;28;20136;-63
2022/04/20 08:47:05;;;;;;;3.20;1.95;;;14.20;78.60;;;;;;5034592;28;20041;-63
2022/04/20 08:49:31;;;;;;;6.00;2.50;;;14.10;80.30;;;;;;5017043;28;20064;-63
2022/04/20 08:54:42;;;;;;;5.25;2.47;;;14.00;81.40;;;;;;5016866;28;20053;-63
2022/04/20 08:57:20;;;;;;;3.97;2.10;;;14.10;81.10;;;;;;5034168;28;20045;-64
2022/04/20 08:59:48;;;;;;;6.65;2.70;;;14.10;79.80;;;;;;5034097;28;20042;-63
2022/04/20 09:02:19;;;;;;;5.40;2.40;;;14.10;80.90;;;;;;5016243;28;20033;-65
2022/04/20 09:04:46;;;;;;;5.75;2.40;;;14.20;80.70;;;;;;5034458;28;20037;-65
2022/04/20 09:07:15;;;;;;;4.30;2.00;;;14.40;79.90;;;;;;5016741;28;20129;-63
2022/04/20 09:09:41;;;;;;;5.30;2.30;;;14.40;78.90;;;;;;5033974;28;20099;-64
2022/04/20 09:12:11;;;;;;;3.45;2.10;;;14.60;77.80;;;;;;5000023;28;20153;-64
2022/04/20 09:14:41;;;;;;;3.45;2.08;;;14.80;78.80;;;;;;5034463;28;20037;-65
2022/04/20 09:17:10;;;;;;;3.55;1.95;;;14.80;78.50;;;;;;5034011;28;20045;-63
2022/04/20 09:19:36;;;;;;;5.45;2.08;;;15.00;75.90;;;;;;5016470;28;20541;-66
2022/04/20 09:22:22;;;;;;;3.67;2.20;;;14.90;76.80;;;;;;5033497;28;20644;-64
2022/04/20 09:24:57;;;;;;;3.47;2.03;;;15.00;76.10;;;;;;5034090;28;20056;-63
2022/04/20 09:27:23;;;;;;;5.43;2.55;;;15.00;75.90;;;;;;5016171;28;20128;-65
2022/04/20 09:29:56;;;;;;;5.80;2.25;;;15.00;76.30;;;;;;5015612;28;20130;-62
2022/04/20 09:32:35;;;;;;;3.13;2.30;;;15.00;75.10;;;;;;5028589;28;20037;-63
2022/04/20 09:35:03;;;;;;;3.72;2.17;;;15.10;73.30;;;;;;5013858;28;20471;-62
2022/04/20 09:37:30;;;;;;;3.63;2.38;;;15.10;73.50;;;;;;5014036;28;20038;-63
2022/04/20 09:39:56;;;;;;;2.97;1.98;;;15.30;74.30;;;;;;4995868;28;20049;-63
2022/04/20 09:42:22;;;;;;;3.20;1.90;;;15.30;72.40;;;;;;4984734;28;20037;-64
2022/04/20 09:45:01;;;;;;;6.43;2.42;;;15.40;71.40;;;;;;5015741;28;20049;-63
2022/04/20 09:50:22;;;;;;;;;;;15.40;72.50;;;;;;5033798;28;20042;-62
2022/04/20 09:52:49;;;;;;;3.88;2.00;;;15.60;72.80;;;;;;5033393;28;19971;-63
2022/04/20 09:55:25;;;;;;;9.52;2.50;;;15.60;71.70;;;;;;5016303;28;20033;-64
2022/04/20 09:57:51;;;;;;;4.85;2.03;;;15.80;72.70;;;;;;5033186;28;20103;-62
2022/04/20 10:00:16;;;;;;;4.53;2.10;;;15.80;71.20;;;;;;5015531;28;20049;-62
2022/04/20 10:02:51;;;;;;;5.47;1.95;;;15.80;71.00;;;;;;5015475;28;20030;-64
2022/04/20 10:05:18;;;;;;;3.30;1.95;;;15.90;70.00;;;;;;5015845;28;20237;-64
2022/04/20 10:07:44;;;;;;;4.22;2.00;;;16.10;70.20;;;;;;5015635;28;20045;-64
2022/04/20 10:10:10;;;;;;;2.95;1.80;;;16.10;68.40;;;;;;5033090;28;20052;-65
2022/04/20 10:12:42;;;;;;;2.78;1.80;;;16.10;66.70;;;;;;5015591;28;20038;-64
2022/04/20 10:17:56;;;;;;;4.00;2.60;;;16.00;66.90;;;;;;5015241;28;20391;-64
2022/04/20 10:20:26;;;;;;;2.47;1.70;;;15.90;68.20;;;;;;5015458;28;20041;-63
2022/04/20 10:22:53;;;;;;;3.70;2.08;;;16.10;65.30;;;;;;5020422;28;20041;-63
2022/04/20 10:25:18;;;;;;;2.88;1.80;;;16.00;65.20;;;;;;5032036;28;20458;-65
2022/04/20 10:28:03;;;;;;;4.28;2.10;;;16.20;63.40;;;;;;5029447;28;20030;-64
2022/04/20 10:30:50;;;;;;;3.53;1.95;;;16.10;65.90;;;;;;5027936;28;20220;-64
2022/04/20 10:33:19;;;;;;;3.85;2.13;;;16.20;65.20;;;;;;5031782;28;20076;-65
2022/04/20 10:35:58;;;;;;;3.70;1.80;;;16.40;62.80;;;;;;5032321;28;20037;-64
2022/04/20 10:38:24;;;;;;;3.03;1.80;;;16.40;63.20;;;;;;5031469;28;20045;-64
2022/04/20 10:40:59;;;;;;;4.03;2.00;;;16.40;63.50;;;;;;5032423;28;20029;-64
2022/04/20 10:43:26;;;;;;;4.22;2.25;;;16.50;63.60;;;;;;5035701;28;20116;-64
2022/04/20 10:46:18;;;;;;;3.40;1.98;;;16.60;63.60;;;;;;5030810;28;20053;-63
2022/04/20 10:48:44;;;;;;;10.18;2.45;;;16.80;62.80;;;;;;5035306;28;20415;-63
2022/04/20 10:51:12;;;;;;;3.33;1.83;;;16.80;63.30;;;;;;5036289;28;20048;-63
2022/04/20 10:53:38;;;;;;;3.92;2.22;;;17.00;63.50;;;;;;5036346;28;20037;-62
2022/04/20 10:56:04;;;;;;;3.05;2.17;;;17.20;61.70;;;;;;5035410;28;20121;-62
2022/04/20 10:58:29;;;;;;;4.07;2.22;;;17.00;60.90;;;;;;5036392;28;20461;-62
2022/04/20 11:01:11;;;;;;;3.45;1.92;;;16.60;61.70;;;;;;5035924;28;20040;-67
2022/04/20 11:04:06;;;;;;;4.68;2.10;;;16.60;62.50;;;;;;5030070;28;20046;-62
2022/04/20 11:07:12;;;;;;;3.95;2.25;;;16.70;61.60;;;;;;5035705;28;20435;-63
2022/04/20 11:09:47;;;;;;;2.95;1.90;;;16.90;61.90;;;;;;5035679;28;20037;-62
2022/04/20 11:21:03;;;;;;;5.72;2.10;;;17.00;62.80;;;;;;5035593;28;19970;-64
2022/04/20 11:23:47;;;;;;;3.30;2.40;;;17.20;60.60;;;;;;5032025;28;20041;-63
2022/04/20 11:26:19;;;;;;;6.00;2.08;;;17.10;63.00;;;;;;5035684;28;20049;-62
2022/04/20 11:28:45;;;;;;;4.63;2.30;;;17.20;62.60;;;;;;5025280;28;20059;-65
2022/04/20 11:31:11;;;;;;;3.92;2.10;;;17.30;62.00;;;;;;5035449;28;20124;-64
2022/04/20 11:33:38;;;;;;;4.93;2.25;;;17.40;60.90;;;;;;5023097;28;20470;-65
2022/04/20 11:36:04;;;;;;;3.65;2.17;;;17.10;62.30;;;;;;5018500;28;20053;-65
2022/04/20 11:38:41;;;;;;;12.52;2.22;;;17.00;62.70;;;;;;5018398;28;20046;-64
2022/04/20 11:41:07;;;;;;;4.03;2.00;;;17.20;64.00;;;;;;5035753;28;20088;-65
2022/04/20 11:43:35;;;;;;;4.43;2.53;;;17.30;63.90;;;;;;5035838;28;20060;-64
2022/04/20 11:46:01;;;;;;;3.60;2.28;;;17.40;63.90;;;;;;5035347;28;20164;-64
2022/04/20 11:48:27;;;;;;;4.47;2.40;;;17.60;63.00;;;;;;5035559;28;20081;-64
2022/04/20 11:51:08;;;;;;;4.63;2.60;;;17.70;61.90;;;;;;5018319;28;20140;-65
2022/04/20 11:53:41;;;;;;;5.80;2.78;;;17.60;62.50;;;;;;5017834;28;20041;-64
2022/04/20 11:56:07;;;;;;;5.20;2.30;;;17.60;62.50;;;;;;5018408;28;20079;-63
2022/04/20 11:58:34;;;;;;;5.57;2.67;;;17.50;62.80;;;;;;5018186;28;20042;-64
2022/04/20 12:01:04;;;;;;;4.07;2.40;;;17.60;62.60;;;;;;5035503;28;20047;-64
2022/04/20 12:03:41;;;;;;;4.57;2.60;;;17.60;63.50;;;;;;5017728;28;20117;-64
2022/04/20 12:06:09;;;;;;;5.45;2.72;;;17.70;63.30;;;;;;5035774;28;20088;-64
2022/04/20 12:08:42;;;;;;;4.20;2.22;;;17.70;63.20;;;;;;5035799;28;20132;-64
2022/04/20 12:11:11;;;;;;;4.65;2.75;;;17.60;64.20;;;;;;5017645;28;20049;-65
2022/04/20 12:13:40;;;;;;;5.45;2.75;;;17.60;64.50;;;;;;4987703;28;20056;-65
2022/04/20 12:16:09;;;;;;;3.83;2.60;;;17.90;63.00;;;;;;4998145;28;20121;-66
2022/04/20 12:18:37;;;;;;;4.80;2.50;;;17.90;63.50;;;;;;4998332;28;20521;-64
2022/04/20 12:21:26;;;;;;;5.28;2.55;;;18.10;62.70;;;;;;5015454;28;20038;-64
2022/04/20 12:23:52;;;;;;;4.40;2.28;;;18.20;62.90;;;;;;5030989;28;20116;-64
2022/04/20 12:26:27;;;;;;;6.03;3.10;;;18.20;62.50;;;;;;5017633;28;20439;-64
2022/04/20 12:29:06;;;;;;;5.25;2.58;;;18.00;62.40;;;;;;5034906;28;20041;-65
2022/04/20 12:31:33;;;;;;;6.95;2.70;;;17.90;62.10;;;;;;5029496;28;20068;-65
2022/04/20 12:34:03;;;;;;;4.47;2.30;;;18.00;62.70;;;;;;5030760;28;20432;-65
2022/04/20 12:36:31;;;;;;;8.23;2.65;;;18.10;63.30;;;;;;5000313;28;20060;-62
2022/04/20 12:38:58;;;;;;;5.53;2.53;;;18.20;62.80;;;;;;5034320;28;20103;-64
2022/04/20 12:41:36;;;;;;;4.55;2.67;;;18.10;61.90;;;;;;5034301;28;20034;-64
2022/04/20 12:44:21;;;;;;;3.42;2.47;;;18.10;61.90;;;;;;5034524;28;20107;-63
2022/04/20 12:46:47;;;;;;;6.10;2.58;;;17.90;61.70;;;;;;5019339;28;20057;-63
2022/04/20 12:49:26;;;;;;;4.68;2.72;;;17.90;61.90;;;;;;5000358;28;20048;-62
2022/04/20 12:51:52;;;;;;;5.05;2.67;;;18.10;60.90;;;;;;5017087;28;20545;-62
2022/04/20 12:54:26;;;;;;;6.82;3.05;;;18.10;60.60;;;;;;5034441;28;20117;-63
2022/04/20 13:02:32;;;;;;;4.70;2.15;;;18.60;58.30;;;;;;5033889;28;20037;-64
2022/04/20 13:05:02;;;;;;;3.15;1.90;;;18.60;59.20;;;;;;5033722;28;20045;-63
2022/04/20 13:07:46;;;;;;;3.78;2.17;;;18.70;58.00;;;;;;5016948;28;20046;-65
2022/04/20 13:10:14;;;;;;;;;;;18.60;58.50;;;;;;4999765;28;20065;-65
2022/04/20 13:12:54;;;;;;;3.97;1.95;;;18.40;57.30;;;;;;5016354;28;19917;-65
2022/04/20 13:18:16;;;;;;;6.47;2.20;;;18.40;58.80;;;;;;5016417;28;20045;-65
2022/04/20 13:20:49;;;;;;;3.22;2.03;;;18.40;58.70;;;;;;5033700;28;20038;-65
2022/04/20 13:23:21;;;;;;;4.32;1.92;;;18.50;58.10;;;;;;4989738;28;20048;-68
2022/04/20 13:28:44;;;;;;;3.42;2.00;;;18.50;57.00;;;;;;4996654;28;20053;-66
2022/04/20 13:31:16;;;;;;;;;;;18.60;55.30;;;;;;5014700;28;20042;-63
2022/04/20 13:33:46;;;;;;;2.38;1.60;;;18.60;55.00;;;;;;5026616;28;20180;-64
2022/04/20 13:36:21;;;;;;;4.22;1.80;;;18.60;55.20;;;;;;5001337;28;20438;-65
2022/04/20 13:38:46;;;;;;;2.90;1.83;;;18.60;55.30;;;;;;5016400;28;20064;-62
2022/04/20 13:41:12;;;;;;;4.25;1.60;;;18.50;55.70;;;;;;5033936;28;20041;-63